Strona główna
METAR-TAF:

METAR-TAF

Lotnisko :

Port lotniczy Trang

Trang, Tajlandia

Szerokość geograficzna: 07-31N, Długość geograficzna: 099-37E, wysokość: 14 m

Aktualna obserwacja pogody

Raport powstał 25 minut temu, godzina 00:00 UTC
Wiatr 3 kt od zachód
Temperatura 22°C
Wilgotność 100%
Ciśnienie 1009 hPa
Widzialność 10 km lub więcej
Mało chmury na wysokości 2000 ft

METAR: VTST 270000Z 26003KT 9999 FEW020 22/22 Q1009 NOSIG

czas: 07:25 (00:25 UTC)

Prognoza

Raport powstał 1 godzina i 25 minut temu, godzina 23:00 UTC
Prognoza ważna od 27 godzina 00 UTC do 27 godzina 24 UTC
Wiatr 8 kt od wschodnio-północny wschód
Widzialność 10 km lub więcej
Mało chmury na wysokości 2000 ft
Stopniowe zmiany
od 27 godzina 12 UTC do 27 godzina 14 UTC
Wiatr kt od północ

TAF: VTST 262300Z 2700/2724 06008KT 9999 FEW020 BECMG 2712/2714 00000KT

Obserwacja i prognoza pogody dla ponad 4000 lotnisk (raport METAR i TAF).

Dostępne stacje oznaczono żółtymi i czerwonymi punktami na mapie.

Najedź kursorem aby zobaczyć nazwę stacji.

Kliknij aby zobaczyć obserwacje i prognozy pogody.

Aby zmienić mapę: kliknij na zielony przycisk z czarnym krzyżykiem, aby powiększyć; na zielony przycisk z myślnikiem, aby pomniejszyć; na zielone strzałki, aby przejść do map sąsiednich.


METAR-TAF: